sensor_id;sensor_type;location;lat;lon;timestamp;P1;durP1;ratioP1;P2;durP2;ratioP2
64208;SDS011;50527;52.414;13.226;2023-05-07T00:01:15;5.45;;;2.45;;
64208;SDS011;50527;52.414;13.226;2023-05-07T00:03:41;7.50;;;2.53;;
64208;SDS011;50527;52.414;13.226;2023-05-07T00:06:06;6.40;;;2.78;;
64208;SDS011;50527;52.414;13.226;2023-05-07T00:08:32;6.43;;;3.03;;
64208;SDS011;50527;52.414;13.226;2023-05-07T00:10:57;7.13;;;2.92;;
64208;SDS011;50527;52.414;13.226;2023-05-07T00:13:23;5.85;;;2.70;;
64208;SDS011;50527;52.414;13.226;2023-05-07T00:15:48;7.53;;;2.85;;
64208;SDS011;50527;52.414;13.226;2023-05-07T00:18:14;6.43;;;2.38;;
64208;SDS011;50527;52.414;13.226;2023-05-07T00:20:39;5.03;;;2.70;;
64208;SDS011;50527;52.414;13.226;2023-05-07T00:23:05;5.43;;;2.67;;
64208;SDS011;50527;52.414;13.226;2023-05-07T00:25:30;6.20;;;2.90;;
64208;SDS011;50527;52.414;13.226;2023-05-07T00:27:55;6.47;;;2.80;;
64208;SDS011;50527;52.414;13.226;2023-05-07T00:30:22;6.68;;;2.92;;
64208;SDS011;50527;52.414;13.226;2023-05-07T00:32:48;6.93;;;2.95;;
64208;SDS011;50527;52.414;13.226;2023-05-07T00:35:14;5.95;;;2.67;;
64208;SDS011;50527;52.414;13.226;2023-05-07T00:37:39;7.28;;;2.58;;
64208;SDS011;50527;52.414;13.226;2023-05-07T00:40:05;7.75;;;3.05;;
64208;SDS011;50527;52.414;13.226;2023-05-07T00:42:32;6.70;;;2.40;;
64208;SDS011;50527;52.414;13.226;2023-05-07T00:44:58;7.40;;;2.75;;
64208;SDS011;50527;52.414;13.226;2023-05-07T00:47:24;6.05;;;2.40;;
64208;SDS011;50527;52.414;13.226;2023-05-07T00:49:50;6.90;;;2.58;;
64208;SDS011;50527;52.414;13.226;2023-05-07T00:52:16;5.78;;;2.70;;
64208;SDS011;50527;52.414;13.226;2023-05-07T00:54:44;5.18;;;2.30;;
64208;SDS011;50527;52.414;13.226;2023-05-07T00:57:10;7.45;;;2.70;;
64208;SDS011;50527;52.414;13.226;2023-05-07T00:59:36;6.32;;;2.85;;
64208;SDS011;50527;52.414;13.226;2023-05-07T01:02:02;5.85;;;2.25;;
64208;SDS011;50527;52.414;13.226;2023-05-07T01:04:27;8.20;;;2.47;;
64208;SDS011;50527;52.414;13.226;2023-05-07T01:06:56;7.75;;;2.80;;
64208;SDS011;50527;52.414;13.226;2023-05-07T01:09:23;5.45;;;2.70;;
64208;SDS011;50527;52.414;13.226;2023-05-07T01:11:50;4.45;;;2.00;;
64208;SDS011;50527;52.414;13.226;2023-05-07T01:14:16;4.38;;;2.20;;
64208;SDS011;50527;52.414;13.226;2023-05-07T01:16:43;4.47;;;2.10;;
64208;SDS011;50527;52.414;13.226;2023-05-07T01:19:09;11.15;;;2.45;;
64208;SDS011;50527;52.414;13.226;2023-05-07T01:21:36;5.10;;;1.98;;
64208;SDS011;50527;52.414;13.226;2023-05-07T01:24:03;4.13;;;1.85;;
64208;SDS011;50527;52.414;13.226;2023-05-07T01:26:30;4.00;;;1.90;;
64208;SDS011;50527;52.414;13.226;2023-05-07T01:28:55;4.82;;;1.75;;
64208;SDS011;50527;52.414;13.226;2023-05-07T01:31:21;4.38;;;1.65;;
64208;SDS011;50527;52.414;13.226;2023-05-07T01:33:48;5.20;;;1.80;;
64208;SDS011;50527;52.414;13.226;2023-05-07T01:36:15;4.82;;;1.88;;
64208;SDS011;50527;52.414;13.226;2023-05-07T01:38:43;5.00;;;2.13;;
64208;SDS011;50527;52.414;13.226;2023-05-07T01:41:09;5.55;;;1.98;;
64208;SDS011;50527;52.414;13.226;2023-05-07T01:43:35;6.78;;;2.45;;
64208;SDS011;50527;52.414;13.226;2023-05-07T01:46:01;4.60;;;1.92;;
64208;SDS011;50527;52.414;13.226;2023-05-07T01:48:28;3.83;;;1.77;;
64208;SDS011;50527;52.414;13.226;2023-05-07T01:50:53;4.72;;;1.85;;
64208;SDS011;50527;52.414;13.226;2023-05-07T01:53:20;5.47;;;1.80;;
64208;SDS011;50527;52.414;13.226;2023-05-07T01:55:46;4.32;;;1.75;;
64208;SDS011;50527;52.414;13.226;2023-05-07T01:58:11;4.47;;;1.48;;
64208;SDS011;50527;52.414;13.226;2023-05-07T02:00:36;3.25;;;1.70;;
64208;SDS011;50527;52.414;13.226;2023-05-07T02:03:02;4.32;;;1.52;;
64208;SDS011;50527;52.414;13.226;2023-05-07T02:05:28;3.85;;;1.60;;
64208;SDS011;50527;52.414;13.226;2023-05-07T02:07:53;7.03;;;2.22;;
64208;SDS011;50527;52.414;13.226;2023-05-07T02:19:50;5.05;;;1.63;;
64208;SDS011;50527;52.414;13.226;2023-05-07T02:22:15;3.25;;;1.90;;
64208;SDS011;50527;52.414;13.226;2023-05-07T02:24:41;5.07;;;1.98;;
64208;SDS011;50527;52.414;13.226;2023-05-07T02:27:06;4.63;;;1.98;;
64208;SDS011;50527;52.414;13.226;2023-05-07T02:29:32;4.18;;;2.28;;
64208;SDS011;50527;52.414;13.226;2023-05-07T02:31:57;4.18;;;1.98;;
64208;SDS011;50527;52.414;13.226;2023-05-07T02:34:23;4.63;;;1.80;;
64208;SDS011;50527;52.414;13.226;2023-05-07T02:36:48;5.57;;;2.10;;
64208;SDS011;50527;52.414;13.226;2023-05-07T02:39:14;5.55;;;2.08;;
64208;SDS011;50527;52.414;13.226;2023-05-07T02:41:56;4.95;;;1.98;;
64208;SDS011;50527;52.414;13.226;2023-05-07T02:44:22;8.15;;;2.25;;
64208;SDS011;50527;52.414;13.226;2023-05-07T02:46:47;4.93;;;2.08;;
64208;SDS011;50527;52.414;13.226;2023-05-07T02:49:13;3.58;;;1.90;;
64208;SDS011;50527;52.414;13.226;2023-05-07T02:51:38;4.75;;;1.98;;
64208;SDS011;50527;52.414;13.226;2023-05-07T03:00:34;4.35;;;2.00;;
64208;SDS011;50527;52.414;13.226;2023-05-07T03:09:43;5.13;;;2.30;;
64208;SDS011;50527;52.414;13.226;2023-05-07T03:12:09;5.50;;;2.40;;
64208;SDS011;50527;52.414;13.226;2023-05-07T03:14:34;12.38;;;2.58;;
64208;SDS011;50527;52.414;13.226;2023-05-07T03:17:00;5.07;;;2.30;;
64208;SDS011;50527;52.414;13.226;2023-05-07T03:19:25;4.35;;;1.98;;
64208;SDS011;50527;52.414;13.226;2023-05-07T03:21:51;6.20;;;2.25;;
64208;SDS011;50527;52.414;13.226;2023-05-07T03:24:16;5.25;;;2.03;;
64208;SDS011;50527;52.414;13.226;2023-05-07T03:26:42;4.85;;;2.08;;
64208;SDS011;50527;52.414;13.226;2023-05-07T03:29:07;3.47;;;2.03;;
64208;SDS011;50527;52.414;13.226;2023-05-07T03:31:33;5.85;;;2.22;;
64208;SDS011;50527;52.414;13.226;2023-05-07T03:33:58;4.97;;;2.17;;
64208;SDS011;50527;52.414;13.226;2023-05-07T03:36:24;5.03;;;1.95;;
64208;SDS011;50527;52.414;13.226;2023-05-07T03:38:51;8.00;;;2.00;;
64208;SDS011;50527;52.414;13.226;2023-05-07T03:41:17;5.60;;;2.20;;
64208;SDS011;50527;52.414;13.226;2023-05-07T03:43:42;6.82;;;2.35;;
64208;SDS011;50527;52.414;13.226;2023-05-07T03:46:08;4.80;;;2.00;;
64208;SDS011;50527;52.414;13.226;2023-05-07T03:48:34;4.40;;;2.03;;
64208;SDS011;50527;52.414;13.226;2023-05-07T03:50:59;5.53;;;2.10;;
64208;SDS011;50527;52.414;13.226;2023-05-07T03:53:25;4.78;;;1.90;;
64208;SDS011;50527;52.414;13.226;2023-05-07T03:55:50;5.72;;;2.40;;
64208;SDS011;50527;52.414;13.226;2023-05-07T03:58:16;7.13;;;1.80;;
64208;SDS011;50527;52.414;13.226;2023-05-07T04:00:42;4.85;;;2.17;;
64208;SDS011;50527;52.414;13.226;2023-05-07T04:03:07;4.30;;;1.73;;
64208;SDS011;50527;52.414;13.226;2023-05-07T04:05:33;6.20;;;2.10;;
64208;SDS011;50527;52.414;13.226;2023-05-07T04:07:58;6.60;;;2.40;;
64208;SDS011;50527;52.414;13.226;2023-05-07T04:10:25;3.70;;;1.83;;
64208;SDS011;50527;52.414;13.226;2023-05-07T04:12:51;5.13;;;1.80;;
64208;SDS011;50527;52.414;13.226;2023-05-07T04:15:16;7.13;;;2.20;;
64208;SDS011;50527;52.414;13.226;2023-05-07T04:17:42;4.22;;;1.77;;
64208;SDS011;50527;52.414;13.226;2023-05-07T04:20:14;5.65;;;2.40;;
64208;SDS011;50527;52.414;13.226;2023-05-07T04:25:07;4.78;;;1.90;;
64208;SDS011;50527;52.414;13.226;2023-05-07T04:27:34;4.78;;;1.77;;
64208;SDS011;50527;52.414;13.226;2023-05-07T04:29:59;3.63;;;1.70;;
64208;SDS011;50527;52.414;13.226;2023-05-07T04:32:25;4.00;;;1.80;;
64208;SDS011;50527;52.414;13.226;2023-05-07T04:34:51;3.60;;;1.70;;
64208;SDS011;50527;52.414;13.226;2023-05-07T04:37:17;7.03;;;1.95;;
64208;SDS011;50527;52.414;13.226;2023-05-07T04:39:42;7.50;;;2.20;;
64208;SDS011;50527;52.414;13.226;2023-05-07T04:42:08;4.25;;;1.80;;
64208;SDS011;50527;52.414;13.226;2023-05-07T04:44:34;4.78;;;1.90;;
64208;SDS011;50527;52.414;13.226;2023-05-07T04:47:00;4.30;;;1.90;;
64208;SDS011;50527;52.414;13.226;2023-05-07T04:49:25;3.92;;;2.08;;
64208;SDS011;50527;52.414;13.226;2023-05-07T04:51:51;4.03;;;2.00;;
64208;SDS011;50527;52.414;13.226;2023-05-07T04:54:16;5.43;;;2.20;;
64208;SDS011;50527;52.414;13.226;2023-05-07T04:56:42;6.10;;;2.30;;
64208;SDS011;50527;52.414;13.226;2023-05-07T04:59:07;3.97;;;1.58;;
64208;SDS011;50527;52.414;13.226;2023-05-07T05:01:33;6.15;;;1.92;;
64208;SDS011;50527;52.414;13.226;2023-05-07T05:03:58;4.45;;;1.80;;
64208;SDS011;50527;52.414;13.226;2023-05-07T05:06:25;5.10;;;1.80;;
64208;SDS011;50527;52.414;13.226;2023-05-07T05:08:50;3.45;;;1.60;;
64208;SDS011;50527;52.414;13.226;2023-05-07T05:11:16;3.90;;;1.55;;
64208;SDS011;50527;52.414;13.226;2023-05-07T05:13:41;4.40;;;1.77;;
64208;SDS011;50527;52.414;13.226;2023-05-07T05:16:07;3.47;;;1.58;;
64208;SDS011;50527;52.414;13.226;2023-05-07T05:18:32;3.30;;;1.60;;
64208;SDS011;50527;52.414;13.226;2023-05-07T05:20:58;7.75;;;1.85;;
64208;SDS011;50527;52.414;13.226;2023-05-07T05:23:23;2.45;;;1.42;;
64208;SDS011;50527;52.414;13.226;2023-05-07T05:25:49;3.65;;;1.65;;
64208;SDS011;50527;52.414;13.226;2023-05-07T05:28:14;4.32;;;1.75;;
64208;SDS011;50527;52.414;13.226;2023-05-07T05:30:40;4.63;;;1.45;;
64208;SDS011;50527;52.414;13.226;2023-05-07T05:33:05;3.75;;;1.67;;
64208;SDS011;50527;52.414;13.226;2023-05-07T05:35:31;6.13;;;1.67;;
64208;SDS011;50527;52.414;13.226;2023-05-07T05:37:56;3.70;;;1.70;;
64208;SDS011;50527;52.414;13.226;2023-05-07T05:40:22;3.50;;;1.52;;
64208;SDS011;50527;52.414;13.226;2023-05-07T05:42:47;6.63;;;1.73;;
64208;SDS011;50527;52.414;13.226;2023-05-07T05:45:13;3.22;;;1.77;;
64208;SDS011;50527;52.414;13.226;2023-05-07T05:47:38;3.05;;;1.60;;
64208;SDS011;50527;52.414;13.226;2023-05-07T05:50:05;2.50;;;1.48;;
64208;SDS011;50527;52.414;13.226;2023-05-07T05:52:31;3.88;;;1.67;;
64208;SDS011;50527;52.414;13.226;2023-05-07T05:54:56;3.10;;;1.60;;
64208;SDS011;50527;52.414;13.226;2023-05-07T05:57:22;4.43;;;1.60;;
64208;SDS011;50527;52.414;13.226;2023-05-07T05:59:48;3.03;;;1.38;;
64208;SDS011;50527;52.414;13.226;2023-05-07T06:02:13;4.55;;;1.60;;
64208;SDS011;50527;52.414;13.226;2023-05-07T06:04:39;3.97;;;1.40;;
64208;SDS011;50527;52.414;13.226;2023-05-07T06:07:04;4.32;;;1.40;;
64208;SDS011;50527;52.414;13.226;2023-05-07T06:09:30;3.65;;;1.48;;
64208;SDS011;50527;52.414;13.226;2023-05-07T06:11:55;5.30;;;1.25;;
64208;SDS011;50527;52.414;13.226;2023-05-07T06:14:21;3.72;;;1.25;;
64208;SDS011;50527;52.414;13.226;2023-05-07T06:16:46;4.15;;;1.38;;
64208;SDS011;50527;52.414;13.226;2023-05-07T06:19:12;2.67;;;1.30;;
64208;SDS011;50527;52.414;13.226;2023-05-07T06:21:38;6.18;;;1.27;;
64208;SDS011;50527;52.414;13.226;2023-05-07T06:24:04;3.97;;;1.30;;
64208;SDS011;50527;52.414;13.226;2023-05-07T06:26:30;3.30;;;1.35;;
64208;SDS011;50527;52.414;13.226;2023-05-07T06:28:55;3.03;;;1.30;;
64208;SDS011;50527;52.414;13.226;2023-05-07T06:31:21;4.15;;;1.58;;
64208;SDS011;50527;52.414;13.226;2023-05-07T06:33:46;3.60;;;1.08;;
64208;SDS011;50527;52.414;13.226;2023-05-07T06:36:12;2.88;;;1.45;;
64208;SDS011;50527;52.414;13.226;2023-05-07T06:38:38;3.47;;;1.20;;
64208;SDS011;50527;52.414;13.226;2023-05-07T06:41:03;3.78;;;1.40;;
64208;SDS011;50527;52.414;13.226;2023-05-07T06:43:30;3.92;;;1.58;;
64208;SDS011;50527;52.414;13.226;2023-05-07T06:45:55;2.42;;;1.10;;
64208;SDS011;50527;52.414;13.226;2023-05-07T06:48:21;3.35;;;1.40;;
64208;SDS011;50527;52.414;13.226;2023-05-07T06:50:46;8.13;;;1.23;;
64208;SDS011;50527;52.414;13.226;2023-05-07T06:53:12;2.25;;;1.10;;
64208;SDS011;50527;52.414;13.226;2023-05-07T06:55:37;3.30;;;1.05;;
64208;SDS011;50527;52.414;13.226;2023-05-07T06:58:03;2.53;;;1.20;;
64208;SDS011;50527;52.414;13.226;2023-05-07T07:00:28;3.50;;;1.08;;
64208;SDS011;50527;52.414;13.226;2023-05-07T07:02:54;2.55;;;1.00;;
64208;SDS011;50527;52.414;13.226;2023-05-07T07:05:20;6.95;;;1.45;;
64208;SDS011;50527;52.414;13.226;2023-05-07T07:07:46;5.18;;;1.17;;
64208;SDS011;50527;52.414;13.226;2023-05-07T07:10:17;2.75;;;1.20;;
64208;SDS011;50527;52.414;13.226;2023-05-07T07:12:44;2.95;;;1.20;;
64208;SDS011;50527;52.414;13.226;2023-05-07T07:15:09;2.67;;;1.02;;
64208;SDS011;50527;52.414;13.226;2023-05-07T07:17:35;2.25;;;1.05;;
64208;SDS011;50527;52.414;13.226;2023-05-07T07:20:00;3.75;;;1.10;;
64208;SDS011;50527;52.414;13.226;2023-05-07T07:22:26;2.88;;;1.30;;
64208;SDS011;50527;52.414;13.226;2023-05-07T07:24:51;3.28;;;1.10;;
64208;SDS011;50527;52.414;13.226;2023-05-07T07:27:17;2.78;;;1.17;;
64208;SDS011;50527;52.414;13.226;2023-05-07T07:29:42;3.92;;;1.30;;
64208;SDS011;50527;52.414;13.226;2023-05-07T07:32:08;2.33;;;1.08;;
64208;SDS011;50527;52.414;13.226;2023-05-07T07:34:33;2.60;;;1.10;;
64208;SDS011;50527;52.414;13.226;2023-05-07T07:36:59;2.03;;;0.93;;
64208;SDS011;50527;52.414;13.226;2023-05-07T07:39:30;3.78;;;1.20;;
64208;SDS011;50527;52.414;13.226;2023-05-07T07:41:55;3.47;;;0.90;;
64208;SDS011;50527;52.414;13.226;2023-05-07T07:44:21;5.75;;;1.23;;
64208;SDS011;50527;52.414;13.226;2023-05-07T07:46:46;3.78;;;1.02;;
64208;SDS011;50527;52.414;13.226;2023-05-07T07:49:12;5.15;;;1.20;;
64208;SDS011;50527;52.414;13.226;2023-05-07T07:51:37;6.25;;;1.00;;
64208;SDS011;50527;52.414;13.226;2023-05-07T07:54:03;2.75;;;1.10;;
64208;SDS011;50527;52.414;13.226;2023-05-07T07:56:29;2.20;;;1.05;;
64208;SDS011;50527;52.414;13.226;2023-05-07T07:58:54;2.40;;;0.90;;
64208;SDS011;50527;52.414;13.226;2023-05-07T08:01:20;1.50;;;0.80;;
64208;SDS011;50527;52.414;13.226;2023-05-07T08:03:45;4.47;;;1.40;;
64208;SDS011;50527;52.414;13.226;2023-05-07T08:06:11;1.85;;;0.82;;
64208;SDS011;50527;52.414;13.226;2023-05-07T08:08:36;1.73;;;0.90;;
64208;SDS011;50527;52.414;13.226;2023-05-07T08:11:02;2.65;;;1.00;;
64208;SDS011;50527;52.414;13.226;2023-05-07T08:13:27;2.42;;;0.90;;
64208;SDS011;50527;52.414;13.226;2023-05-07T08:15:53;1.00;;;0.70;;
64208;SDS011;50527;52.414;13.226;2023-05-07T08:18:18;1.52;;;0.82;;
64208;SDS011;50527;52.414;13.226;2023-05-07T08:20:44;2.35;;;0.80;;
64208;SDS011;50527;52.414;13.226;2023-05-07T08:23:09;3.42;;;0.95;;
64208;SDS011;50527;52.414;13.226;2023-05-07T08:25:35;1.90;;;0.90;;
64208;SDS011;50527;52.414;13.226;2023-05-07T08:28:01;3.78;;;0.95;;
64208;SDS011;50527;52.414;13.226;2023-05-07T08:30:29;2.60;;;1.00;;
64208;SDS011;50527;52.414;13.226;2023-05-07T08:32:54;1.58;;;0.70;;
64208;SDS011;50527;52.414;13.226;2023-05-07T08:35:20;1.88;;;0.70;;
64208;SDS011;50527;52.414;13.226;2023-05-07T08:37:45;1.75;;;0.80;;
64208;SDS011;50527;52.414;13.226;2023-05-07T08:40:11;2.53;;;0.80;;
64208;SDS011;50527;52.414;13.226;2023-05-07T08:42:36;3.10;;;0.77;;
64208;SDS011;50527;52.414;13.226;2023-05-07T08:45:03;1.40;;;0.68;;
64208;SDS011;50527;52.414;13.226;2023-05-07T08:47:43;2.17;;;0.70;;
64208;SDS011;50527;52.414;13.226;2023-05-07T08:50:11;1.27;;;0.65;;
64208;SDS011;50527;52.414;13.226;2023-05-07T08:52:37;1.65;;;0.80;;
64208;SDS011;50527;52.414;13.226;2023-05-07T08:55:04;1.83;;;0.75;;
64208;SDS011;50527;52.414;13.226;2023-05-07T08:57:31;1.88;;;0.80;;
64208;SDS011;50527;52.414;13.226;2023-05-07T08:59:56;4.00;;;0.70;;
64208;SDS011;50527;52.414;13.226;2023-05-07T09:02:22;1.52;;;0.60;;
64208;SDS011;50527;52.414;13.226;2023-05-07T09:04:47;2.88;;;0.70;;
64208;SDS011;50527;52.414;13.226;2023-05-07T09:07:13;3.60;;;0.70;;
64208;SDS011;50527;52.414;13.226;2023-05-07T09:09:39;2.05;;;0.75;;
64208;SDS011;50527;52.414;13.226;2023-05-07T09:12:04;1.02;;;0.65;;
64208;SDS011;50527;52.414;13.226;2023-05-07T09:14:30;2.55;;;0.80;;
64208;SDS011;50527;52.414;13.226;2023-05-07T09:16:55;4.10;;;0.90;;
64208;SDS011;50527;52.414;13.226;2023-05-07T09:19:22;5.53;;;0.80;;
64208;SDS011;50527;52.414;13.226;2023-05-07T09:21:49;1.98;;;0.50;;
64208;SDS011;50527;52.414;13.226;2023-05-07T09:24:15;2.05;;;0.50;;
64208;SDS011;50527;52.414;13.226;2023-05-07T09:26:41;0.65;;;0.40;;
64208;SDS011;50527;52.414;13.226;2023-05-07T09:29:07;3.75;;;0.60;;
64208;SDS011;50527;52.414;13.226;2023-05-07T09:31:38;0.98;;;0.45;;
64208;SDS011;50527;52.414;13.226;2023-05-07T09:34:04;2.15;;;0.63;;
64208;SDS011;50527;52.414;13.226;2023-05-07T09:36:31;1.30;;;0.47;;
64208;SDS011;50527;52.414;13.226;2023-05-07T09:38:59;1.35;;;0.47;;
64208;SDS011;50527;52.414;13.226;2023-05-07T09:41:25;3.58;;;0.63;;
64208;SDS011;50527;52.414;13.226;2023-05-07T09:43:54;1.20;;;0.60;;
64208;SDS011;50527;52.414;13.226;2023-05-07T09:46:21;1.13;;;0.50;;
64208;SDS011;50527;52.414;13.226;2023-05-07T09:48:52;2.67;;;0.65;;
64208;SDS011;50527;52.414;13.226;2023-05-07T09:51:22;2.78;;;0.65;;
64208;SDS011;50527;52.414;13.226;2023-05-07T09:53:53;1.98;;;0.50;;
64208;SDS011;50527;52.414;13.226;2023-05-07T09:56:19;2.03;;;0.50;;
64208;SDS011;50527;52.414;13.226;2023-05-07T09:58:46;1.30;;;0.70;;
64208;SDS011;50527;52.414;13.226;2023-05-07T10:01:12;0.93;;;0.40;;
64208;SDS011;50527;52.414;13.226;2023-05-07T10:03:39;1.83;;;0.70;;
64208;SDS011;50527;52.414;13.226;2023-05-07T10:06:06;1.33;;;0.55;;
64208;SDS011;50527;52.414;13.226;2023-05-07T10:08:33;1.85;;;0.45;;
64208;SDS011;50527;52.414;13.226;2023-05-07T10:11:00;1.77;;;0.40;;
64208;SDS011;50527;52.414;13.226;2023-05-07T10:13:26;2.40;;;0.50;;
64208;SDS011;50527;52.414;13.226;2023-05-07T10:15:52;1.40;;;0.40;;
64208;SDS011;50527;52.414;13.226;2023-05-07T10:18:18;1.85;;;0.40;;
64208;SDS011;50527;52.414;13.226;2023-05-07T10:20:48;1.80;;;0.45;;
64208;SDS011;50527;52.414;13.226;2023-05-07T10:23:18;1.63;;;0.47;;
64208;SDS011;50527;52.414;13.226;2023-05-07T10:25:47;1.00;;;0.40;;
64208;SDS011;50527;52.414;13.226;2023-05-07T10:28:13;2.60;;;0.55;;
64208;SDS011;50527;52.414;13.226;2023-05-07T10:33:36;0.95;;;0.40;;
64208;SDS011;50527;52.414;13.226;2023-05-07T10:36:02;1.05;;;0.30;;
64208;SDS011;50527;52.414;13.226;2023-05-07T10:38:30;1.95;;;0.47;;
64208;SDS011;50527;52.414;13.226;2023-05-07T10:40:56;0.65;;;0.40;;
64208;SDS011;50527;52.414;13.226;2023-05-07T10:43:21;1.13;;;0.40;;
64208;SDS011;50527;52.414;13.226;2023-05-07T10:51:28;1.88;;;0.70;;
64208;SDS011;50527;52.414;13.226;2023-05-07T10:54:40;1.85;;;0.75;;
64208;SDS011;50527;52.414;13.226;2023-05-07T10:56:44;2.05;;;0.40;;
64208;SDS011;50527;52.414;13.226;2023-05-07T11:01:55;3.13;;;0.40;;
64208;SDS011;50527;52.414;13.226;2023-05-07T11:04:21;2.28;;;0.40;;
64208;SDS011;50527;52.414;13.226;2023-05-07T11:13:00;0.95;;;0.30;;
64208;SDS011;50527;52.414;13.226;2023-05-07T11:15:11;0.98;;;0.47;;
64208;SDS011;50527;52.414;13.226;2023-05-07T11:17:59;1.58;;;0.50;;
64208;SDS011;50527;52.414;13.226;2023-05-07T11:20:44;1.67;;;0.38;;
64208;SDS011;50527;52.414;13.226;2023-05-07T11:24:11;1.33;;;0.40;;
64208;SDS011;50527;52.414;13.226;2023-05-07T11:26:09;1.70;;;0.77;;
64208;SDS011;50527;52.414;13.226;2023-05-07T11:28:40;1.17;;;0.30;;
64208;SDS011;50527;52.414;13.226;2023-05-07T11:31:07;2.35;;;0.32;;
64208;SDS011;50527;52.414;13.226;2023-05-07T11:33:33;1.55;;;0.40;;
64208;SDS011;50527;52.414;13.226;2023-05-07T11:36:00;0.60;;;0.30;;
64208;SDS011;50527;52.414;13.226;2023-05-07T11:38:27;0.98;;;0.40;;
64208;SDS011;50527;52.414;13.226;2023-05-07T11:40:55;1.52;;;0.40;;
64208;SDS011;50527;52.414;13.226;2023-05-07T11:53:07;3.47;;;0.60;;
64208;SDS011;50527;52.414;13.226;2023-05-07T12:02:17;0.63;;;0.40;;
64208;SDS011;50527;52.414;13.226;2023-05-07T12:04:55;0.40;;;0.28;;
64208;SDS011;50527;52.414;13.226;2023-05-07T12:07:20;2.45;;;0.40;;
64208;SDS011;50527;52.414;13.226;2023-05-07T12:09:46;0.65;;;0.47;;
64208;SDS011;50527;52.414;13.226;2023-05-07T12:12:12;0.93;;;0.40;;
64208;SDS011;50527;52.414;13.226;2023-05-07T12:14:44;0.93;;;0.32;;
64208;SDS011;50527;52.414;13.226;2023-05-07T12:17:11;0.65;;;0.30;;
64208;SDS011;50527;52.414;13.226;2023-05-07T12:19:39;1.45;;;0.45;;
64208;SDS011;50527;52.414;13.226;2023-05-07T12:22:07;1.45;;;0.40;;
64208;SDS011;50527;52.414;13.226;2023-05-07T12:24:46;1.30;;;0.50;;
64208;SDS011;50527;52.414;13.226;2023-05-07T12:27:13;0.40;;;0.30;;
64208;SDS011;50527;52.414;13.226;2023-05-07T12:29:39;1.50;;;0.30;;
64208;SDS011;50527;52.414;13.226;2023-05-07T12:32:12;0.73;;;0.20;;
64208;SDS011;50527;52.414;13.226;2023-05-07T12:34:39;1.02;;;0.45;;
64208;SDS011;50527;52.414;13.226;2023-05-07T12:40:40;2.25;;;0.40;;
64208;SDS011;50527;52.414;13.226;2023-05-07T12:46:38;0.80;;;0.50;;
64208;SDS011;50527;52.414;13.226;2023-05-07T12:49:04;2.00;;;0.43;;
64208;SDS011;50527;52.414;13.226;2023-05-07T12:51:29;0.95;;;0.30;;
64208;SDS011;50527;52.414;13.226;2023-05-07T12:53:55;0.50;;;0.40;;
64208;SDS011;50527;52.414;13.226;2023-05-07T12:56:22;2.80;;;0.60;;
64208;SDS011;50527;52.414;13.226;2023-05-07T12:58:57;0.25;;;0.22;;
64208;SDS011;50527;52.414;13.226;2023-05-07T13:01:28;1.15;;;0.40;;
64208;SDS011;50527;52.414;13.226;2023-05-07T13:03:54;1.45;;;0.50;;
64208;SDS011;50527;52.414;13.226;2023-05-07T13:06:23;1.38;;;0.45;;
64208;SDS011;50527;52.414;13.226;2023-05-07T13:08:48;1.75;;;0.60;;
64208;SDS011;50527;52.414;13.226;2023-05-07T13:11:14;1.38;;;0.40;;
64208;SDS011;50527;52.414;13.226;2023-05-07T13:13:40;2.08;;;0.60;;
64208;SDS011;50527;52.414;13.226;2023-05-07T13:22:28;1.38;;;0.38;;
64208;SDS011;50527;52.414;13.226;2023-05-07T13:27:57;1.98;;;0.55;;
64208;SDS011;50527;52.414;13.226;2023-05-07T13:30:23;0.55;;;0.25;;
64208;SDS011;50527;52.414;13.226;2023-05-07T13:32:48;0.55;;;0.30;;
64208;SDS011;50527;52.414;13.226;2023-05-07T13:35:15;2.10;;;0.38;;
64208;SDS011;50527;52.414;13.226;2023-05-07T13:41:03;3.00;;;0.40;;
64208;SDS011;50527;52.414;13.226;2023-05-07T13:43:28;0.75;;;0.40;;
64208;SDS011;50527;52.414;13.226;2023-05-07T13:45:54;1.05;;;0.43;;
64208;SDS011;50527;52.414;13.226;2023-05-07T13:48:19;0.73;;;0.50;;
64208;SDS011;50527;52.414;13.226;2023-05-07T13:50:45;0.93;;;0.40;;
64208;SDS011;50527;52.414;13.226;2023-05-07T13:53:10;1.33;;;0.35;;
64208;SDS011;50527;52.414;13.226;2023-05-07T13:55:36;1.33;;;0.40;;
64208;SDS011;50527;52.414;13.226;2023-05-07T13:58:01;1.00;;;0.40;;
64208;SDS011;50527;52.414;13.226;2023-05-07T14:00:28;2.67;;;0.50;;
64208;SDS011;50527;52.414;13.226;2023-05-07T14:02:54;0.77;;;0.40;;
64208;SDS011;50527;52.414;13.226;2023-05-07T14:05:20;1.30;;;0.60;;
64208;SDS011;50527;52.414;13.226;2023-05-07T14:07:48;1.38;;;0.45;;
64208;SDS011;50527;52.414;13.226;2023-05-07T14:10:16;0.80;;;0.30;;
64208;SDS011;50527;52.414;13.226;2023-05-07T14:12:43;1.67;;;0.43;;
64208;SDS011;50527;52.414;13.226;2023-05-07T14:15:09;0.47;;;0.30;;
64208;SDS011;50527;52.414;13.226;2023-05-07T14:17:35;0.80;;;0.30;;
64208;SDS011;50527;52.414;13.226;2023-05-07T14:20:00;0.98;;;0.50;;
64208;SDS011;50527;52.414;13.226;2023-05-07T14:22:26;3.20;;;0.40;;
64208;SDS011;50527;52.414;13.226;2023-05-07T14:24:51;0.50;;;0.30;;
64208;SDS011;50527;52.414;13.226;2023-05-07T14:27:17;0.57;;;0.30;;
64208;SDS011;50527;52.414;13.226;2023-05-07T14:29:42;2.03;;;0.50;;
64208;SDS011;50527;52.414;13.226;2023-05-07T14:32:08;1.45;;;0.40;;
64208;SDS011;50527;52.414;13.226;2023-05-07T14:34:34;0.60;;;0.40;;
64208;SDS011;50527;52.414;13.226;2023-05-07T14:36:59;3.80;;;0.40;;
64208;SDS011;50527;52.414;13.226;2023-05-07T14:39:25;0.32;;;0.20;;
64208;SDS011;50527;52.414;13.226;2023-05-07T14:41:51;0.47;;;0.30;;
64208;SDS011;50527;52.414;13.226;2023-05-07T14:44:19;0.95;;;0.40;;
64208;SDS011;50527;52.414;13.226;2023-05-07T14:46:45;0.95;;;0.30;;
64208;SDS011;50527;52.414;13.226;2023-05-07T14:49:11;2.70;;;0.40;;
64208;SDS011;50527;52.414;13.226;2023-05-07T14:51:45;2.13;;;0.40;;
64208;SDS011;50527;52.414;13.226;2023-05-07T14:54:12;1.42;;;0.40;;
64208;SDS011;50527;52.414;13.226;2023-05-07T14:56:38;3.15;;;0.50;;
64208;SDS011;50527;52.414;13.226;2023-05-07T14:59:03;0.73;;;0.40;;
64208;SDS011;50527;52.414;13.226;2023-05-07T15:01:29;0.82;;;0.30;;
64208;SDS011;50527;52.414;13.226;2023-05-07T15:03:55;0.63;;;0.30;;
64208;SDS011;50527;52.414;13.226;2023-05-07T15:06:21;1.85;;;0.47;;
64208;SDS011;50527;52.414;13.226;2023-05-07T15:08:49;1.70;;;0.77;;
64208;SDS011;50527;52.414;13.226;2023-05-07T15:11:14;0.57;;;0.30;;
64208;SDS011;50527;52.414;13.226;2023-05-07T15:13:41;0.50;;;0.30;;
64208;SDS011;50527;52.414;13.226;2023-05-07T15:16:07;2.40;;;0.50;;
64208;SDS011;50527;52.414;13.226;2023-05-07T15:18:33;3.30;;;0.40;;
64208;SDS011;50527;52.414;13.226;2023-05-07T15:20:58;3.60;;;0.40;;
64208;SDS011;50527;52.414;13.226;2023-05-07T15:23:24;0.60;;;0.30;;
64208;SDS011;50527;52.414;13.226;2023-05-07T15:25:49;0.60;;;0.30;;
64208;SDS011;50527;52.414;13.226;2023-05-07T15:28:15;3.97;;;0.47;;
64208;SDS011;50527;52.414;13.226;2023-05-07T15:30:40;2.15;;;0.40;;
64208;SDS011;50527;52.414;13.226;2023-05-07T15:33:06;2.25;;;0.50;;
64208;SDS011;50527;52.414;13.226;2023-05-07T15:35:31;0.40;;;0.30;;
64208;SDS011;50527;52.414;13.226;2023-05-07T15:37:57;0.85;;;0.50;;
64208;SDS011;50527;52.414;13.226;2023-05-07T15:40:22;1.02;;;0.43;;
64208;SDS011;50527;52.414;13.226;2023-05-07T15:42:48;2.85;;;0.60;;
64208;SDS011;50527;52.414;13.226;2023-05-07T15:45:13;0.90;;;0.30;;
64208;SDS011;50527;52.414;13.226;2023-05-07T15:47:39;1.10;;;0.40;;